createdAt,value
2017-11-20T00:00:50.621Z,5.30
2017-11-20T00:03:18.866Z,5.20
2017-11-20T00:05:46.356Z,5.20
2017-11-20T00:08:13.852Z,5.30
2017-11-20T00:10:42.108Z,5.30
2017-11-20T00:13:09.593Z,5.30
2017-11-20T00:15:37.852Z,5.40
2017-11-20T00:18:05.329Z,5.40
2017-11-20T00:20:32.832Z,5.50
2017-11-20T00:23:01.077Z,5.50
2017-11-20T00:25:28.581Z,5.40
2017-11-20T00:27:56.056Z,5.50
2017-11-20T00:30:24.320Z,5.60
2017-11-20T00:32:51.798Z,5.60
2017-11-20T00:35:19.300Z,5.60
2017-11-20T00:37:46.781Z,5.60
2017-11-20T00:40:14.282Z,5.60
2017-11-20T00:42:41.757Z,5.60
2017-11-20T00:45:09.256Z,5.70
2017-11-20T00:47:36.733Z,5.60
2017-11-20T00:50:04.994Z,5.70
2017-11-20T00:52:32.481Z,5.60
2017-11-20T00:54:59.977Z,5.70
2017-11-20T00:57:27.457Z,5.80
2017-11-20T00:59:54.961Z,5.80
2017-11-20T01:02:22.440Z,5.70
2017-11-20T01:04:49.937Z,5.70
2017-11-20T01:07:18.181Z,5.60
2017-11-20T01:09:45.682Z,5.60
2017-11-20T01:12:13.291Z,5.60
2017-11-20T01:14:40.785Z,5.60
2017-11-20T01:17:08.265Z,5.60
2017-11-20T01:19:35.765Z,5.60
2017-11-20T01:22:03.235Z,5.60
2017-11-20T01:24:30.718Z,5.60
2017-11-20T01:26:58.989Z,5.60
2017-11-20T01:29:26.464Z,5.50
2017-11-20T01:31:53.960Z,5.60
2017-11-20T01:34:22.205Z,5.40
2017-11-20T01:36:49.714Z,5.40
2017-11-20T01:39:17.961Z,5.40
2017-11-20T01:41:45.457Z,5.30
2017-11-20T01:44:12.936Z,5.40
2017-11-20T01:46:41.196Z,5.30
2017-11-20T01:49:08.676Z,5.20
2017-11-20T01:51:36.169Z,5.30
2017-11-20T01:54:04.409Z,5.30
2017-11-20T01:56:31.913Z,5.20
2017-11-20T01:59:00.166Z,5.20
2017-11-20T02:01:27.676Z,5.20
2017-11-20T02:03:55.918Z,5.20
2017-11-20T02:06:23.413Z,5.10
2017-11-20T02:08:50.899Z,5.20
2017-11-20T02:11:19.176Z,5.20
2017-11-20T02:13:46.662Z,5.10
2017-11-20T02:16:14.947Z,5.20
2017-11-20T02:18:43.185Z,5.30
2017-11-20T02:21:10.693Z,5.20
2017-11-20T02:23:38.164Z,5.20
2017-11-20T02:26:05.657Z,5.20
2017-11-20T02:28:33.896Z,5.40
2017-11-20T02:31:01.397Z,5.30
2017-11-20T02:33:28.872Z,5.40
2017-11-20T02:35:57.136Z,5.40
2017-11-20T02:38:24.615Z,5.30
2017-11-20T02:40:52.116Z,5.40
2017-11-20T02:43:19.600Z,5.40
2017-11-20T02:45:47.108Z,5.20
2017-11-20T02:48:14.588Z,5.20
2017-11-20T02:50:42.099Z,5.20
2017-11-20T02:53:09.574Z,5.10
2017-11-20T02:55:37.064Z,5.10
2017-11-20T02:58:04.544Z,5.20
2017-11-20T03:00:32.041Z,5.10
2017-11-20T03:02:59.533Z,5.20
2017-11-20T03:05:27.049Z,5.10
2017-11-20T03:07:54.531Z,5.20
2017-11-20T03:10:22.037Z,5.10
2017-11-20T03:12:50.314Z,5.10
2017-11-20T03:15:17.800Z,5.00
2017-11-20T03:17:46.037Z,5.20
2017-11-20T03:20:13.538Z,5.10
2017-11-20T03:22:41.026Z,5.10
2017-11-20T03:25:09.293Z,5.20
2017-11-20T03:27:36.770Z,5.10
2017-11-20T03:30:04.303Z,5.00
2017-11-20T03:32:31.801Z,5.00
2017-11-20T03:34:59.277Z,5.00
2017-11-20T03:37:26.773Z,5.00
2017-11-20T03:39:55.013Z,5.00
2017-11-20T03:42:22.517Z,4.90
2017-11-20T03:44:49.988Z,4.90
2017-11-20T03:47:17.478Z,4.90
2017-11-20T03:49:45.720Z,4.90
2017-11-20T03:52:13.213Z,4.80
2017-11-20T03:54:40.685Z,4.80
2017-11-20T03:57:08.180Z,4.80
2017-11-20T03:59:35.673Z,4.80
2017-11-20T04:02:03.172Z,4.70
2017-11-20T04:04:30.644Z,4.90
2017-11-20T04:06:58.139Z,4.80
2017-11-20T04:09:26.395Z,4.70
2017-11-20T04:11:53.886Z,4.70
2017-11-20T04:14:21.360Z,4.70
2017-11-20T04:16:48.869Z,4.70
2017-11-20T04:19:16.348Z,4.70
2017-11-20T04:21:43.843Z,4.60
2017-11-20T04:24:11.320Z,4.60
2017-11-20T04:26:38.822Z,4.60
2017-11-20T04:29:07.059Z,4.60
2017-11-20T04:31:34.556Z,4.50
2017-11-20T04:34:02.049Z,4.60
2017-11-20T04:36:30.308Z,4.50
2017-11-20T04:38:57.792Z,4.50
2017-11-20T04:41:25.289Z,4.60
2017-11-20T04:43:52.768Z,4.60
2017-11-20T04:46:20.273Z,4.50
2017-11-20T04:48:47.748Z,4.50
2017-11-20T04:51:15.241Z,4.50
2017-11-20T04:53:42.720Z,4.50
2017-11-20T04:56:10.985Z,4.50
2017-11-20T04:58:38.474Z,4.40
2017-11-20T05:01:06.740Z,4.40
2017-11-20T05:03:34.252Z,4.40
2017-11-20T05:06:01.773Z,4.40
2017-11-20T05:08:29.254Z,4.50
2017-11-20T05:10:56.763Z,4.50
2017-11-20T05:13:24.242Z,4.40
2017-11-20T05:15:51.741Z,4.50
2017-11-20T05:18:19.224Z,4.40
2017-11-20T05:20:46.721Z,4.50
2017-11-20T05:23:14.978Z,4.40
2017-11-20T05:25:42.484Z,4.30
2017-11-20T05:28:10.728Z,4.40
2017-11-20T05:30:38.229Z,4.40
2017-11-20T05:33:05.708Z,4.30
2017-11-20T05:35:33.978Z,4.30
2017-11-20T05:38:01.453Z,4.20
2017-11-20T05:40:28.965Z,4.20
2017-11-20T05:42:56.448Z,4.20
2017-11-20T05:45:23.930Z,4.30
2017-11-20T05:47:51.429Z,4.30
2017-11-20T05:50:18.913Z,4.40
2017-11-20T05:52:47.181Z,4.30
2017-11-20T05:55:14.660Z,4.20
2017-11-20T05:57:42.159Z,4.30
2017-11-20T06:00:10.401Z,4.20
2017-11-20T06:02:37.901Z,4.20
2017-11-20T06:05:06.144Z,4.20
2017-11-20T06:07:33.647Z,4.20
2017-11-20T06:10:01.138Z,4.10
2017-11-20T06:12:29.401Z,4.20
2017-11-20T06:14:56.877Z,4.20
2017-11-20T06:17:24.377Z,4.20
2017-11-20T06:19:51.861Z,4.10
2017-11-20T06:22:19.389Z,4.10
2017-11-20T06:24:46.885Z,4.20
2017-11-20T06:27:14.405Z,4.00
2017-11-20T06:29:41.933Z,3.80
2017-11-20T06:32:09.428Z,3.80
2017-11-20T06:34:36.913Z,3.80
2017-11-20T06:37:04.418Z,3.70
2017-11-20T06:39:32.674Z,3.60
2017-11-20T06:42:00.191Z,3.60
2017-11-20T06:44:28.441Z,3.70
2017-11-20T06:46:55.951Z,3.60
2017-11-20T06:49:24.213Z,3.70
2017-11-20T06:51:51.730Z,3.60
2017-11-20T06:54:19.228Z,3.80
2017-11-20T06:56:46.750Z,3.80
2017-11-20T06:59:14.996Z,3.80
2017-11-20T07:01:42.494Z,3.80
2017-11-20T07:04:09.978Z,3.60
2017-11-20T07:06:37.605Z,3.80
2017-11-20T07:09:05.110Z,3.80
2017-11-20T07:11:33.408Z,3.90
2017-11-20T07:14:01.649Z,3.90
2017-11-20T07:16:29.161Z,3.80
2017-11-20T07:18:57.416Z,3.90
2017-11-20T07:21:24.917Z,3.90
2017-11-20T07:23:53.174Z,3.80
2017-11-20T07:29:33.178Z,3.80
2017-11-20T07:32:00.690Z,3.90
2017-11-20T07:34:40.021Z,3.90
2017-11-20T07:37:20.009Z,3.90
2017-11-20T07:39:59.301Z,3.90
2017-11-20T07:42:26.807Z,3.90
2017-11-20T07:44:55.076Z,3.80
2017-11-20T07:47:22.592Z,3.80
2017-11-20T07:49:50.089Z,3.70
2017-11-20T07:52:17.588Z,3.70
2017-11-20T07:54:45.080Z,3.80
2017-11-20T07:57:13.352Z,3.90
2017-11-20T07:59:41.629Z,4.00
2017-11-20T08:02:09.141Z,3.90
2017-11-20T08:04:36.625Z,3.90
2017-11-20T08:07:04.134Z,3.80
2017-11-20T08:09:31.616Z,3.80
2017-11-20T08:11:59.117Z,3.80
2017-11-20T08:14:26.613Z,3.90
2017-11-20T08:16:54.142Z,3.90
2017-11-20T08:19:21.676Z,4.00
2017-11-20T08:21:50.145Z,4.00
2017-11-20T08:24:17.650Z,4.10
2017-11-20T08:26:45.155Z,4.20
2017-11-20T08:29:13.441Z,4.30
2017-11-20T08:31:53.957Z,4.20
2017-11-20T08:34:21.464Z,4.20
2017-11-20T08:36:48.954Z,4.30
2017-11-20T08:39:17.233Z,4.30
2017-11-20T08:41:48.526Z,4.30
2017-11-20T08:44:16.036Z,4.30
2017-11-20T08:46:43.531Z,4.30
2017-11-20T08:49:11.046Z,4.30
2017-11-20T08:51:38.536Z,4.20
2017-11-20T08:54:06.049Z,4.20
2017-11-20T08:56:33.546Z,4.20
2017-11-20T08:59:01.058Z,4.20
2017-11-20T09:01:28.553Z,4.30
2017-11-20T09:03:56.825Z,4.40
2017-11-20T09:06:24.313Z,4.30
2017-11-20T09:11:47.772Z,4.20
2017-11-20T09:14:15.273Z,4.30
2017-11-20T09:16:42.762Z,4.30
2017-11-20T09:19:11.070Z,4.20
2017-11-20T09:21:39.304Z,4.30
2017-11-20T09:24:06.804Z,4.20
2017-11-20T09:26:34.295Z,4.30
2017-11-20T09:29:02.572Z,4.20
2017-11-20T09:31:30.824Z,4.20
2017-11-20T09:33:58.330Z,4.10
2017-11-20T09:36:26.588Z,4.30
2017-11-20T09:38:54.093Z,4.30
2017-11-20T09:41:22.340Z,4.30
2017-11-20T09:43:49.847Z,4.30
2017-11-20T09:46:18.100Z,4.30
2017-11-20T09:48:45.601Z,4.20
2017-11-20T09:51:13.090Z,4.30
2017-11-20T09:53:40.597Z,4.30
2017-11-20T09:56:08.082Z,4.40
2017-11-20T09:58:35.589Z,4.40
2017-11-20T10:01:14.949Z,4.40
2017-11-20T10:03:43.216Z,4.40
2017-11-20T10:06:10.881Z,4.30
2017-11-20T10:08:38.384Z,4.40
2017-11-20T10:11:05.882Z,4.40
2017-11-20T10:13:34.153Z,4.60
2017-11-20T10:16:01.672Z,4.60
2017-11-20T10:18:29.182Z,4.60
2017-11-20T10:20:56.673Z,4.60
2017-11-20T10:23:24.161Z,4.60
2017-11-20T10:25:51.660Z,4.60
2017-11-20T10:28:19.149Z,4.70
2017-11-20T10:30:47.426Z,4.60
2017-11-20T10:33:14.913Z,4.60
2017-11-20T10:35:43.197Z,4.50
2017-11-20T10:38:11.481Z,4.50
2017-11-20T10:40:39.754Z,4.30
2017-11-20T10:43:07.241Z,4.30
2017-11-20T10:45:35.552Z,4.30
2017-11-20T10:48:03.032Z,4.20
2017-11-20T10:50:30.537Z,4.30
2017-11-20T10:52:58.028Z,4.30
2017-11-20T10:55:25.529Z,4.20
2017-11-20T10:57:53.027Z,4.20
2017-11-20T11:00:20.528Z,4.20
2017-11-20T11:02:48.013Z,4.30
2017-11-20T11:05:15.523Z,4.20
2017-11-20T11:07:43.024Z,4.20
2017-11-20T11:10:10.533Z,4.30
2017-11-20T11:12:38.776Z,4.10
2017-11-20T11:15:06.272Z,4.00
2017-11-20T11:17:33.758Z,4.00
2017-11-20T11:20:02.033Z,4.10
2017-11-20T11:22:30.298Z,4.10
2017-11-20T11:24:57.885Z,4.10
2017-11-20T11:27:25.427Z,4.20
2017-11-20T11:29:52.914Z,4.20
2017-11-20T11:32:20.425Z,4.20
2017-11-20T11:34:48.700Z,4.20
2017-11-20T11:37:16.218Z,4.10
2017-11-20T11:39:43.705Z,4.20
2017-11-20T11:42:11.222Z,4.20
2017-11-20T11:44:39.481Z,4.20
2017-11-20T11:47:07.004Z,4.20
2017-11-20T11:49:34.496Z,4.30
2017-11-20T11:52:02.005Z,4.30
2017-11-20T11:54:29.496Z,4.40
2017-11-20T11:56:57.788Z,4.50
2017-11-20T11:59:26.041Z,4.50
2017-11-20T12:01:53.556Z,4.40
2017-11-20T12:04:21.049Z,4.50
2017-11-20T12:06:48.565Z,4.50
2017-11-20T12:09:16.057Z,4.60
2017-11-20T12:11:44.325Z,4.70
2017-11-20T12:14:11.817Z,4.60
2017-11-20T12:16:40.084Z,4.60
2017-11-20T12:19:08.344Z,4.60
2017-11-20T12:21:35.850Z,4.50
2017-11-20T12:24:04.109Z,4.60
2017-11-20T12:26:31.635Z,4.50
2017-11-20T12:28:59.126Z,4.50
2017-11-20T12:31:27.383Z,4.50
2017-11-20T12:33:55.654Z,4.50
2017-11-20T12:36:23.909Z,4.60
2017-11-20T12:38:51.420Z,4.50
2017-11-20T12:41:19.677Z,4.60
2017-11-20T12:43:47.181Z,4.60
2017-11-20T12:46:15.432Z,4.60
2017-11-20T12:48:47.189Z,4.60
2017-11-20T12:51:14.685Z,4.60
2017-11-20T12:53:43.165Z,4.70
2017-11-20T12:56:10.656Z,4.60
2017-11-20T12:58:38.937Z,4.80
2017-11-20T13:01:06.433Z,4.70
2017-11-20T13:03:34.710Z,4.90
2017-11-20T13:06:02.962Z,4.90
2017-11-20T13:08:30.470Z,4.90
2017-11-20T13:10:58.762Z,4.90
2017-11-20T13:13:27.037Z,5.00
2017-11-20T13:15:54.522Z,4.90
2017-11-20T13:18:22.792Z,5.10
2017-11-20T13:20:50.283Z,5.00
2017-11-20T13:23:18.571Z,5.00
2017-11-20T13:25:46.825Z,5.10
2017-11-20T13:28:14.333Z,5.00
2017-11-20T13:31:03.088Z,5.00
2017-11-20T13:33:32.574Z,5.00
2017-11-20T13:36:12.496Z,5.10
2017-11-20T13:38:40.001Z,5.10
2017-11-20T13:41:07.481Z,5.00
2017-11-20T13:43:34.973Z,5.00
2017-11-20T13:46:04.481Z,5.00
2017-11-20T13:48:31.976Z,5.00
2017-11-20T13:51:00.221Z,5.00
2017-11-20T13:53:27.725Z,4.90
2017-11-20T13:55:55.202Z,5.00
2017-11-20T13:58:23.476Z,4.90
2017-11-20T14:00:50.952Z,4.80
2017-11-20T14:03:19.216Z,4.90
2017-11-20T14:05:46.705Z,4.80
2017-11-20T14:08:14.190Z,4.90
2017-11-20T14:10:42.465Z,5.00
2017-11-20T14:13:09.945Z,4.90
2017-11-20T14:15:38.213Z,4.90
2017-11-20T14:18:05.701Z,4.90
2017-11-20T14:20:33.986Z,4.90
2017-11-20T14:23:02.254Z,4.90
2017-11-20T14:25:29.770Z,4.90
2017-11-20T14:27:57.252Z,4.90
2017-11-20T14:30:24.748Z,4.90
2017-11-20T14:32:52.252Z,4.90
2017-11-20T14:35:19.761Z,5.00
2017-11-20T14:37:47.247Z,5.00
2017-11-20T14:40:14.754Z,5.00
2017-11-20T14:42:42.314Z,5.00
2017-11-20T14:45:09.822Z,5.00
2017-11-20T14:47:38.074Z,5.00
2017-11-20T14:50:05.594Z,5.00
2017-11-20T14:52:37.931Z,5.00
2017-11-20T14:55:05.476Z,4.90
2017-11-20T14:57:32.965Z,4.90
2017-11-20T15:00:00.495Z,4.80
2017-11-20T15:02:28.000Z,4.80
2017-11-20T15:04:55.502Z,4.80
2017-11-20T15:07:23.757Z,4.80
2017-11-20T15:09:51.284Z,4.70
2017-11-20T15:12:18.820Z,4.80
2017-11-20T15:14:46.326Z,4.70
2017-11-20T15:17:13.809Z,4.60
2017-11-20T15:19:41.321Z,4.60
2017-11-20T15:22:08.819Z,4.60
2017-11-20T15:24:37.101Z,4.60
2017-11-20T15:27:04.590Z,4.50
2017-11-20T15:29:32.924Z,4.60
2017-11-20T15:32:00.432Z,4.60
2017-11-20T15:34:28.706Z,4.70
2017-11-20T15:36:56.184Z,4.70
2017-11-20T15:39:24.464Z,4.60
2017-11-20T15:41:51.951Z,4.50
2017-11-20T15:44:20.249Z,4.60
2017-11-20T15:46:48.510Z,4.60
2017-11-20T15:49:16.021Z,4.50
2017-11-20T15:51:43.775Z,4.60
2017-11-20T15:54:11.312Z,4.70
2017-11-20T15:56:38.794Z,4.50
2017-11-20T15:59:06.329Z,4.50
2017-11-20T16:01:33.837Z,4.40
2017-11-20T16:04:01.348Z,4.30
2017-11-20T16:06:28.849Z,4.30
2017-11-20T16:08:56.328Z,4.30
2017-11-20T16:11:23.829Z,4.30
2017-11-20T16:13:51.316Z,4.30
2017-11-20T16:16:19.581Z,4.30
2017-11-20T16:18:47.065Z,4.30
2017-11-20T16:21:15.337Z,4.30
2017-11-20T16:23:42.820Z,4.30
2017-11-20T16:26:10.317Z,4.30
2017-11-20T16:28:37.801Z,4.30
2017-11-20T16:31:05.313Z,4.30
2017-11-20T16:33:32.801Z,4.40
2017-11-20T16:36:01.076Z,4.30
2017-11-20T16:38:28.556Z,4.20
2017-11-20T16:40:56.076Z,4.30
2017-11-20T16:43:23.565Z,4.30
2017-11-20T16:45:52.058Z,4.30
2017-11-20T16:48:19.549Z,4.30
2017-11-20T16:50:47.064Z,4.30
2017-11-20T16:53:14.545Z,4.30
2017-11-20T16:55:42.070Z,4.30
2017-11-20T16:58:21.378Z,4.30
2017-11-20T17:00:48.921Z,4.30
2017-11-20T17:03:38.003Z,4.30
2017-11-20T17:06:05.512Z,4.30
2017-11-20T17:08:33.002Z,4.40
2017-11-20T17:11:00.513Z,4.30
2017-11-20T17:13:28.029Z,4.30
2017-11-20T17:15:55.516Z,4.20
2017-11-20T17:18:23.020Z,4.20
2017-11-20T17:20:55.852Z,4.20
2017-11-20T17:23:23.371Z,4.30
2017-11-20T17:25:51.623Z,4.30
2017-11-20T17:28:19.129Z,4.30
2017-11-20T17:30:47.385Z,4.30
2017-11-20T17:33:14.890Z,4.20
2017-11-20T17:35:43.145Z,4.20
2017-11-20T17:38:10.645Z,4.10
2017-11-20T17:40:38.895Z,4.30
2017-11-20T17:43:06.413Z,4.20
2017-11-20T17:45:34.665Z,4.30
2017-11-20T17:48:02.182Z,4.30
2017-11-20T17:50:29.679Z,4.40
2017-11-20T17:52:57.191Z,4.40
2017-11-20T17:55:25.439Z,4.50
2017-11-20T17:57:52.949Z,4.40
2017-11-20T18:00:20.432Z,4.40
2017-11-20T18:02:48.758Z,4.40
2017-11-20T18:05:16.259Z,4.40
2017-11-20T18:07:43.780Z,4.50
2017-11-20T18:10:11.278Z,4.40
2017-11-20T18:12:38.774Z,4.50
2017-11-20T18:15:06.295Z,4.60
2017-11-20T18:17:33.792Z,4.50
2017-11-20T18:20:01.296Z,4.50
2017-11-20T18:22:28.786Z,4.50
2017-11-20T18:24:57.062Z,4.60
2017-11-20T18:27:25.312Z,4.60
2017-11-20T18:29:52.824Z,4.50
2017-11-20T18:32:21.073Z,4.50
2017-11-20T18:34:48.582Z,4.40
2017-11-20T18:37:16.842Z,4.50
2017-11-20T18:39:44.352Z,4.50
2017-11-20T18:42:12.597Z,4.50
2017-11-20T18:44:40.110Z,4.50
2017-11-20T18:47:07.614Z,4.50
2017-11-20T18:49:35.128Z,4.50
2017-11-20T18:52:03.393Z,4.50
2017-11-20T18:54:30.901Z,4.50
2017-11-20T18:56:59.156Z,4.50
2017-11-20T18:59:26.661Z,4.40
2017-11-20T19:02:08.889Z,4.50
2017-11-20T19:04:49.092Z,4.60
2017-11-20T19:10:22.194Z,4.60
2017-11-20T19:12:49.682Z,4.60
2017-11-20T19:15:17.230Z,4.60
2017-11-20T19:17:45.494Z,4.60
2017-11-20T19:20:13.002Z,4.60
2017-11-20T19:22:40.497Z,4.60
2017-11-20T19:25:08.045Z,4.60
2017-11-20T19:27:35.536Z,4.60
2017-11-20T19:30:03.066Z,4.80
2017-11-20T19:32:30.582Z,4.80
2017-11-20T19:34:58.092Z,4.70
2017-11-20T19:37:25.579Z,4.80
2017-11-20T19:39:53.832Z,4.80
2017-11-20T19:42:21.404Z,4.70
2017-11-20T19:44:48.885Z,4.80
2017-11-20T19:47:16.394Z,4.80
2017-11-20T19:49:43.883Z,4.80
2017-11-20T19:52:11.400Z,4.90
2017-11-20T19:54:38.902Z,4.90
2017-11-20T19:57:06.414Z,4.90
2017-11-20T19:59:33.911Z,4.90
2017-11-20T20:02:01.446Z,4.80
2017-11-20T20:04:28.945Z,4.90
2017-11-20T20:06:56.453Z,4.90
2017-11-20T20:09:23.955Z,4.90
2017-11-20T20:11:51.457Z,4.90
2017-11-20T20:14:30.738Z,4.90
2017-11-20T20:17:09.867Z,4.90
2017-11-20T20:19:37.354Z,4.90
2017-11-20T20:22:04.871Z,4.90
2017-11-20T20:24:32.350Z,4.90
2017-11-20T20:26:59.853Z,5.00
2017-11-20T20:29:28.109Z,5.00
2017-11-20T20:31:55.632Z,5.00
2017-11-20T20:34:23.890Z,5.10
2017-11-20T20:36:51.389Z,5.00
2017-11-20T20:39:18.869Z,5.10
2017-11-20T20:41:46.377Z,5.10
2017-11-20T20:44:13.861Z,5.10
2017-11-20T20:46:41.357Z,5.20
2017-11-20T20:49:09.611Z,5.20
2017-11-20T20:51:37.115Z,5.20
2017-11-20T20:54:05.361Z,5.30
2017-11-20T20:56:32.869Z,5.30
2017-11-20T20:59:01.120Z,5.40
2017-11-20T21:01:28.621Z,5.30
2017-11-20T21:03:56.868Z,5.40
2017-11-20T21:06:24.371Z,5.40
2017-11-20T21:08:51.852Z,5.40
2017-11-20T21:11:25.842Z,5.50
2017-11-20T21:14:00.012Z,5.40
2017-11-20T21:16:27.526Z,5.40
2017-11-20T21:18:55.009Z,5.50
2017-11-20T21:21:22.514Z,5.40
2017-11-20T21:23:50.774Z,5.50
2017-11-20T21:26:18.272Z,5.50
2017-11-20T21:28:45.760Z,5.60
2017-11-20T21:31:13.245Z,5.60
2017-11-20T21:33:40.745Z,5.60
2017-11-20T21:36:08.233Z,5.60
2017-11-20T21:38:35.741Z,5.60
2017-11-20T21:41:03.234Z,5.60
2017-11-20T21:43:30.738Z,5.60
2017-11-20T21:45:58.225Z,5.70
2017-11-20T21:48:26.493Z,5.70
2017-11-20T21:50:53.972Z,5.70
2017-11-20T21:53:21.469Z,5.70
2017-11-20T21:55:49.729Z,5.70
2017-11-20T21:58:17.228Z,5.60
2017-11-20T22:00:45.478Z,5.80
2017-11-20T22:03:12.972Z,5.70
2017-11-20T22:05:41.226Z,5.80
2017-11-20T22:08:08.732Z,5.80
2017-11-20T22:10:36.973Z,5.80
2017-11-20T22:13:16.337Z,5.80
2017-11-20T22:15:43.821Z,5.80
2017-11-20T22:18:11.334Z,5.80
2017-11-20T22:20:38.813Z,5.90
2017-11-20T22:23:06.318Z,5.90
2017-11-20T22:25:33.804Z,5.90
2017-11-20T22:28:01.308Z,5.90
2017-11-20T22:30:28.792Z,5.90
2017-11-20T22:32:56.292Z,5.90
2017-11-20T22:35:23.777Z,5.90
2017-11-20T22:37:51.285Z,5.90
2017-11-20T22:40:18.778Z,5.90
2017-11-20T22:42:46.281Z,6.00
2017-11-20T22:45:13.785Z,5.90
2017-11-20T22:47:42.053Z,5.90
2017-11-20T22:50:09.541Z,5.90
2017-11-20T22:52:37.810Z,5.90
2017-11-20T22:55:05.302Z,5.90
2017-11-20T22:57:33.573Z,6.00
2017-11-20T23:00:01.059Z,5.90
2017-11-20T23:02:28.584Z,6.00
2017-11-20T23:04:56.070Z,6.00
2017-11-20T23:07:23.574Z,6.00
2017-11-20T23:09:51.825Z,6.00
2017-11-20T23:12:19.330Z,5.90
2017-11-20T23:14:47.601Z,6.10
2017-11-20T23:17:15.111Z,6.00
2017-11-20T23:19:42.599Z,6.00
2017-11-20T23:22:10.104Z,6.00
2017-11-20T23:24:37.592Z,6.00
2017-11-20T23:27:05.855Z,6.10
2017-11-20T23:29:33.344Z,6.00
2017-11-20T23:32:01.613Z,6.10
2017-11-20T23:34:29.100Z,6.00
2017-11-20T23:36:56.608Z,6.10
2017-11-20T23:39:24.075Z,6.10
2017-11-20T23:41:51.600Z,6.10
2017-11-20T23:44:19.088Z,6.20
2017-11-20T23:46:47.329Z,6.20
2017-11-20T23:49:14.822Z,6.10
2017-11-20T23:51:42.298Z,6.20
2017-11-20T23:54:09.796Z,6.20
2017-11-20T23:56:38.029Z,6.30
2017-11-20T23:59:05.529Z,6.20
